Time;durP1;ratioP1;P1;durP2;ratioP2;P2;SDS_P1;SDS_P2;PMS_P1;PMS_P2;Temp;Humidity;BMP_temperature;BMP_pressure;BME280_temperature;BME280_humidity;BME280_pressure;Samples;Min_cycle;Max_cycle;Signal;HPM_P1;HPM_P2
2021/06/03 00:01:04;;;;;;;15.25;10.95;;;17.30;99.90;;;;;;5086580;28;20484;-82
2021/06/03 00:03:31;;;;;;;16.20;11.68;;;17.20;99.90;;;;;;5087995;28;20047;-82
2021/06/03 00:05:59;;;;;;;18.42;11.15;;;17.20;99.90;;;;;;5069357;28;20055;-82
2021/06/03 00:08:28;;;;;;;11.82;10.23;;;17.20;99.90;;;;;;5085049;28;20032;-82
2021/06/03 00:11:01;;;;;;;18.25;12.27;;;17.20;99.90;;;;;;5083606;28;20122;-82
2021/06/03 00:13:31;;;;;;;18.10;11.88;;;17.10;99.90;;;;;;5087521;28;20487;-82
2021/06/03 00:16:04;;;;;;;14.18;10.68;;;17.10;99.90;;;;;;5088019;28;20039;-82
2021/06/03 00:18:30;;;;;;;13.90;10.95;;;17.10;99.90;;;;;;5084510;28;20058;-83
2021/06/03 00:20:57;;;;;;;14.02;10.82;;;17.10;99.90;;;;;;5064170;28;20040;-82
2021/06/03 00:23:23;;;;;;;13.90;11.07;;;17.10;99.90;;;;;;5069399;28;20463;-83
2021/06/03 00:25:49;;;;;;;18.27;11.38;;;17.00;99.90;;;;;;5086562;28;20043;-82
2021/06/03 00:28:16;;;;;;;15.43;11.23;;;17.00;99.90;;;;;;5059659;28;20119;-82
2021/06/03 00:30:42;;;;;;;15.07;11.48;;;17.00;99.90;;;;;;5086481;28;20113;-82
2021/06/03 00:33:07;;;;;;;15.65;11.70;;;17.00;99.90;;;;;;5084443;28;20044;-82
2021/06/03 00:35:33;;;;;;;15.52;11.55;;;17.00;99.90;;;;;;5086859;28;20032;-82
2021/06/03 00:37:59;;;;;;;16.30;10.95;;;17.00;99.90;;;;;;5068573;28;20099;-82
2021/06/03 00:40:25;;;;;;;17.35;11.60;;;17.00;99.90;;;;;;5060630;28;20033;-82
2021/06/03 00:42:52;;;;;;;17.05;11.43;;;17.00;99.90;;;;;;5086003;28;20040;-82
2021/06/03 00:45:30;;;;;;;14.20;11.75;;;16.90;99.90;;;;;;5086862;28;20058;-82
2021/06/03 00:47:56;;;;;;;22.27;11.85;;;16.90;99.90;;;;;;5082548;28;20039;-82
2021/06/03 00:50:32;;;;;;;16.42;11.50;;;17.00;99.90;;;;;;5069272;28;20040;-82
2021/06/03 00:53:00;;;;;;;15.85;11.82;;;17.00;99.90;;;;;;5086328;28;20028;-82
2021/06/03 00:55:26;;;;;;;15.00;11.52;;;17.00;99.90;;;;;;5072814;28;20517;-82
2021/06/03 00:57:52;;;;;;;15.27;11.15;;;17.00;99.90;;;;;;5053708;28;20131;-82
2021/06/03 01:00:19;;;;;;;17.73;12.35;;;17.00;99.90;;;;;;5070906;28;20529;-82
2021/06/03 01:02:45;;;;;;;14.85;11.20;;;17.00;99.90;;;;;;5073210;28;20609;-82
2021/06/03 01:05:18;;;;;;;15.35;11.05;;;17.00;99.90;;;;;;5088795;28;20028;-82
2021/06/03 01:07:44;;;;;;;14.35;11.43;;;17.00;99.90;;;;;;5087488;28;20036;-82
2021/06/03 01:10:29;;;;;;;16.33;11.13;;;17.00;99.90;;;;;;5089069;28;20052;-82
2021/06/03 01:13:17;;;;;;;16.00;11.57;;;17.00;99.90;;;;;;5089957;28;20044;-82
2021/06/03 01:15:47;;;;;;;14.50;11.40;;;17.00;99.90;;;;;;5088149;28;20146;-82
2021/06/03 01:18:13;;;;;;;17.20;11.27;;;17.00;99.90;;;;;;5089998;28;20035;-82
2021/06/03 01:20:42;;;;;;;17.00;11.57;;;17.00;99.90;;;;;;5089836;28;20056;-82
2021/06/03 01:23:21;;;;;;;18.92;11.40;;;17.00;99.90;;;;;;5088836;28;20055;-82
2021/06/03 01:25:48;;;;;;;13.30;11.77;;;17.00;99.90;;;;;;5089884;28;20039;-82
2021/06/03 01:28:15;;;;;;;16.92;11.43;;;16.90;99.90;;;;;;5087084;28;20043;-82
2021/06/03 01:30:48;;;;;;;15.50;11.73;;;17.00;99.90;;;;;;5067341;28;20502;-82
2021/06/03 01:33:17;;;;;;;15.05;11.70;;;16.90;99.90;;;;;;5087015;28;20082;-82
2021/06/03 01:35:46;;;;;;;14.40;12.10;;;16.90;99.90;;;;;;5090367;28;20032;-82
2021/06/03 01:38:19;;;;;;;13.45;11.32;;;16.90;99.90;;;;;;5088505;28;20065;-82
2021/06/03 01:40:47;;;;;;;18.17;11.70;;;16.90;99.90;;;;;;5089497;28;20093;-82
2021/06/03 01:43:16;;;;;;;19.55;11.40;;;16.90;99.90;;;;;;5086664;28;20059;-82
2021/06/03 01:45:42;;;;;;;20.85;11.27;;;16.90;99.90;;;;;;5072149;28;20048;-82
2021/06/03 01:48:13;;;;;;;16.23;12.13;;;16.90;99.90;;;;;;5068949;28;20044;-82
2021/06/03 01:50:41;;;;;;;17.05;10.50;;;16.90;99.90;;;;;;5089361;28;20029;-82
2021/06/03 01:53:07;;;;;;;15.25;10.90;;;16.90;99.90;;;;;;5088517;28;20407;-82
2021/06/03 01:55:34;;;;;;;17.15;11.65;;;16.90;99.90;;;;;;5097451;27;20047;-82
2021/06/03 01:58:02;;;;;;;20.02;12.40;;;16.90;99.90;;;;;;5087741;28;20403;-82
2021/06/03 02:00:29;;;;;;;14.40;11.63;;;16.90;99.90;;;;;;5088239;28;20047;-82
2021/06/03 02:02:55;;;;;;;12.20;10.82;;;16.90;99.90;;;;;;5112407;27;20043;-82
2021/06/03 02:05:21;;;;;;;13.75;11.82;;;16.90;99.90;;;;;;5053824;28;20051;-82
2021/06/03 02:07:47;;;;;;;16.13;11.25;;;16.90;99.90;;;;;;5069247;28;20031;-82
2021/06/03 02:10:15;;;;;;;14.32;11.90;;;16.90;99.90;;;;;;5063205;28;20040;-82
2021/06/03 02:12:51;;;;;;;16.20;11.45;;;16.80;99.90;;;;;;5071256;28;20039;-82
2021/06/03 02:15:21;;;;;;;16.48;12.07;;;16.80;99.90;;;;;;5086366;28;20490;-82
2021/06/03 02:17:52;;;;;;;18.05;12.65;;;16.80;99.90;;;;;;5070558;28;20082;-82
2021/06/03 02:20:26;;;;;;;15.52;10.65;;;16.80;99.90;;;;;;5085663;28;20047;-82
2021/06/03 02:22:52;;;;;;;18.05;12.93;;;16.80;99.90;;;;;;5087572;28;20038;-82
2021/06/03 02:25:19;;;;;;;15.95;13.05;;;16.80;99.90;;;;;;5088788;28;20065;-82
2021/06/03 02:27:45;;;;;;;15.15;12.25;;;16.80;99.90;;;;;;5086934;28;20047;-82
2021/06/03 02:30:12;;;;;;;14.73;11.63;;;16.80;99.90;;;;;;5087693;28;20036;-82
2021/06/03 02:32:40;;;;;;;19.70;12.57;;;16.70;99.90;;;;;;5066898;28;20037;-82
2021/06/03 02:35:10;;;;;;;14.98;11.93;;;16.70;99.90;;;;;;5088675;28;20035;-82
2021/06/03 02:37:38;;;;;;;16.73;12.60;;;16.70;99.90;;;;;;5085071;28;20035;-82
2021/06/03 02:40:09;;;;;;;15.68;11.70;;;16.70;99.90;;;;;;5064761;28;20766;-82
2021/06/03 02:42:37;;;;;;;18.40;12.18;;;16.70;99.90;;;;;;5084767;28;20119;-82
2021/06/03 02:45:07;;;;;;;14.80;12.20;;;16.70;99.90;;;;;;5088089;28;20043;-82
2021/06/03 02:47:33;;;;;;;16.40;13.70;;;16.70;99.90;;;;;;5088111;28;20059;-82
2021/06/03 02:49:59;;;;;;;15.38;11.75;;;16.80;99.90;;;;;;5089336;28;20062;-82
2021/06/03 02:52:26;;;;;;;19.08;13.05;;;16.80;99.90;;;;;;5087413;28;20060;-83
2021/06/03 02:54:52;;;;;;;13.88;12.43;;;16.80;99.90;;;;;;5071270;28;20048;-82
2021/06/03 02:57:17;;;;;;;17.92;12.55;;;16.80;99.90;;;;;;5064067;28;20041;-82
2021/06/03 02:59:43;;;;;;;16.40;12.20;;;16.80;99.90;;;;;;5087155;28;20105;-82
2021/06/03 03:02:09;;;;;;;18.23;12.43;;;16.80;99.90;;;;;;5088014;28;20168;-82
2021/06/03 03:04:35;;;;;;;14.60;12.13;;;16.80;99.90;;;;;;5096887;28;20055;-82
2021/06/03 03:07:01;;;;;;;14.68;12.80;;;16.80;99.90;;;;;;5062566;28;20491;-82
2021/06/03 03:09:27;;;;;;;14.70;12.93;;;16.80;99.90;;;;;;5069954;28;20056;-82
2021/06/03 03:11:52;;;;;;;17.48;12.45;;;16.80;99.90;;;;;;5087956;28;20066;-82
2021/06/03 03:14:18;;;;;;;17.02;12.48;;;16.80;99.90;;;;;;5034434;28;20049;-82
2021/06/03 03:16:44;;;;;;;14.25;11.93;;;16.80;99.90;;;;;;5048811;28;20078;-82
2021/06/03 03:19:10;;;;;;;14.48;11.88;;;16.80;99.90;;;;;;5069274;28;20051;-82
2021/06/03 03:21:36;;;;;;;15.00;11.80;;;16.80;99.90;;;;;;5088452;28;20036;-82
2021/06/03 03:24:02;;;;;;;15.57;12.15;;;16.80;99.90;;;;;;5086988;28;20040;-82
2021/06/03 03:26:27;;;;;;;19.23;13.00;;;16.80;99.90;;;;;;5087535;28;20479;-82
2021/06/03 03:28:53;;;;;;;18.20;11.85;;;16.80;99.90;;;;;;5062844;28;20032;-82
2021/06/03 03:31:19;;;;;;;13.23;11.63;;;16.70;99.90;;;;;;5086945;28;20054;-82
2021/06/03 03:33:45;;;;;;;12.48;11.18;;;16.60;99.90;;;;;;5086372;28;20048;-82
2021/06/03 03:36:11;;;;;;;14.05;11.77;;;16.60;99.90;;;;;;5047915;28;20047;-82
2021/06/03 03:38:37;;;;;;;14.63;11.48;;;16.60;99.90;;;;;;5065937;28;20776;-82
2021/06/03 03:41:02;;;;;;;16.35;12.70;;;16.60;99.90;;;;;;5087226;28;20035;-81
2021/06/03 03:43:28;;;;;;;17.00;11.93;;;16.60;99.90;;;;;;5087827;28;20124;-82
2021/06/03 03:45:54;;;;;;;14.27;11.95;;;16.70;99.90;;;;;;5087548;28;20044;-82
2021/06/03 03:48:22;;;;;;;17.35;10.93;;;16.70;99.90;;;;;;5068249;28;20048;-82
2021/06/03 03:50:48;;;;;;;12.90;11.60;;;16.70;99.90;;;;;;5063671;28;20081;-82
2021/06/03 03:53:13;;;;;;;15.32;11.60;;;16.80;99.90;;;;;;5052791;28;20040;-82
2021/06/03 03:55:39;;;;;;;16.33;11.60;;;16.80;99.90;;;;;;5070227;28;20067;-82
2021/06/03 03:58:05;;;;;;;13.23;10.45;;;16.90;99.90;;;;;;5085287;28;20055;-82
2021/06/03 04:00:33;;;;;;;15.63;12.07;;;16.90;99.90;;;;;;5085444;28;20056;-82
2021/06/03 04:02:59;;;;;;;15.55;11.68;;;16.90;99.90;;;;;;5086776;28;20035;-82
2021/06/03 04:05:25;;;;;;;17.05;11.15;;;16.90;99.90;;;;;;5085757;28;20040;-82
2021/06/03 04:07:51;;;;;;;16.83;11.32;;;16.90;99.90;;;;;;5084582;28;20035;-82
2021/06/03 04:10:20;;;;;;;15.77;11.57;;;16.90;99.90;;;;;;5085889;28;20075;-82
2021/06/03 04:12:46;;;;;;;15.88;11.27;;;16.90;99.90;;;;;;5085897;28;20056;-82
2021/06/03 04:15:14;;;;;;;15.38;11.57;;;17.00;99.90;;;;;;5086786;28;20034;-82
2021/06/03 04:17:40;;;;;;;13.52;10.63;;;17.00;99.90;;;;;;5086189;28;20403;-82
2021/06/03 04:20:13;;;;;;;12.63;10.80;;;17.00;99.90;;;;;;5086690;28;20035;-82
2021/06/03 04:22:41;;;;;;;13.68;10.55;;;17.10;99.90;;;;;;5084923;28;20048;-82
2021/06/03 04:25:08;;;;;;;14.38;10.23;;;17.10;99.90;;;;;;5063067;28;20043;-82
2021/06/03 04:27:34;;;;;;;13.15;10.50;;;17.10;99.90;;;;;;5067768;28;20035;-82
2021/06/03 04:30:00;;;;;;;13.38;10.35;;;17.10;99.90;;;;;;5067925;28;20483;-82
2021/06/03 04:32:27;;;;;;;15.38;10.18;;;17.10;99.90;;;;;;5069392;28;20066;-82
2021/06/03 04:34:54;;;;;;;12.25;10.50;;;17.20;99.90;;;;;;5066729;28;20028;-82
2021/06/03 04:37:20;;;;;;;11.60;10.13;;;17.20;99.90;;;;;;5085511;28;20047;-82
2021/06/03 04:39:47;;;;;;;11.38;9.60;;;17.20;99.90;;;;;;5069142;28;20115;-82
2021/06/03 04:42:13;;;;;;;14.07;9.80;;;17.30;99.90;;;;;;5051675;28;20040;-82
2021/06/03 04:44:39;;;;;;;12.18;9.73;;;17.30;99.90;;;;;;5085490;28;20043;-82
2021/06/03 04:47:05;;;;;;;13.60;8.90;;;17.30;99.90;;;;;;5069121;28;20140;-82
2021/06/03 04:49:31;;;;;;;12.80;9.38;;;17.30;99.90;;;;;;5068808;28;20146;-82
2021/06/03 04:52:24;;;;;;;13.20;9.45;;;17.40;99.90;;;;;;5074699;28;20028;-82
2021/06/03 04:54:43;;;;;;;13.73;9.60;;;17.40;99.90;;;;;;5088158;28;20510;-82
2021/06/03 04:57:08;;;;;;;13.88;9.00;;;17.40;99.90;;;;;;5068966;28;20036;-85
2021/06/03 04:59:34;;;;;;;10.80;9.43;;;17.40;99.90;;;;;;5082287;28;20450;-82
2021/06/03 05:02:00;;;;;;;12.05;9.80;;;17.40;99.90;;;;;;5048335;28;20475;-82
2021/06/03 05:04:26;;;;;;;12.82;9.70;;;17.50;99.90;;;;;;5035313;28;20045;-81
2021/06/03 05:06:52;;;;;;;11.57;8.98;;;17.50;99.90;;;;;;5035378;28;20108;-81
2021/06/03 05:09:17;;;;;;;14.93;9.57;;;17.50;99.90;;;;;;5068658;28;20521;-81
2021/06/03 05:11:43;;;;;;;12.93;10.43;;;17.50;99.90;;;;;;5051744;28;20044;-81
2021/06/03 05:14:09;;;;;;;11.93;10.18;;;17.50;99.90;;;;;;5044804;28;20129;-80
2021/06/03 05:16:35;;;;;;;11.20;9.82;;;17.60;99.90;;;;;;5042891;28;20047;-80
2021/06/03 05:19:01;;;;;;;17.23;10.20;;;17.60;99.90;;;;;;5076717;28;20165;-80
2021/06/03 05:21:27;;;;;;;13.07;10.60;;;17.60;99.90;;;;;;5042357;28;20522;-81
2021/06/03 05:23:52;;;;;;;17.23;11.27;;;17.70;99.90;;;;;;5085278;28;20811;-81
2021/06/03 05:26:18;;;;;;;11.13;9.75;;;17.70;99.90;;;;;;5084261;28;20040;-81
2021/06/03 05:28:46;;;;;;;11.98;10.38;;;17.80;99.90;;;;;;5078727;28;20147;-80
2021/06/03 05:31:11;;;;;;;14.63;10.48;;;17.90;99.90;;;;;;5084593;28;20608;-81
2021/06/03 05:33:37;;;;;;;15.60;11.18;;;17.90;99.90;;;;;;5083547;28;20445;-81
2021/06/03 05:36:03;;;;;;;15.30;12.35;;;18.00;99.90;;;;;;5067345;28;20123;-81
2021/06/03 05:38:29;;;;;;;13.48;11.50;;;18.00;99.90;;;;;;5044723;28;20047;-81
2021/06/03 05:40:55;;;;;;;13.00;11.38;;;18.10;99.90;;;;;;5087754;28;20466;-80
2021/06/03 05:43:21;;;;;;;14.77;12.10;;;18.10;99.90;;;;;;5068879;28;20552;-80
2021/06/03 05:45:47;;;;;;;21.08;12.32;;;18.20;99.90;;;;;;5087932;28;20034;-80
2021/06/03 05:48:13;;;;;;;17.38;12.52;;;18.30;99.90;;;;;;5053698;28;20036;-80
2021/06/03 05:50:39;;;;;;;15.73;12.52;;;18.30;99.90;;;;;;5065081;28;20043;-80
2021/06/03 05:53:07;;;;;;;19.73;13.20;;;18.40;99.90;;;;;;5087474;28;20040;-80
2021/06/03 05:55:33;;;;;;;18.85;12.75;;;18.40;99.90;;;;;;5087469;28;20514;-81
2021/06/03 05:57:59;;;;;;;18.02;11.90;;;18.50;99.90;;;;;;5066383;28;20040;-80
2021/06/03 06:00:30;;;;;;;16.15;13.43;;;18.50;99.90;;;;;;5067574;28;20052;-80
2021/06/03 06:03:00;;;;;;;19.00;12.90;;;18.60;99.90;;;;;;5056090;28;20066;-81
2021/06/03 06:08:13;;;;;;;15.77;13.95;;;18.70;99.90;;;;;;5079718;28;20402;-81
2021/06/03 06:10:40;;;;;;;14.57;13.07;;;18.70;99.90;;;;;;5070040;28;101635;-80
2021/06/03 06:13:07;;;;;;;18.73;13.73;;;18.70;99.90;;;;;;5055317;28;20047;-82
2021/06/03 06:15:35;;;;;;;16.50;13.63;;;18.70;99.90;;;;;;5054852;28;20064;-80
2021/06/03 06:18:01;;;;;;;15.98;14.27;;;18.80;99.90;;;;;;5068182;28;20040;-81
2021/06/03 06:20:27;;;;;;;18.27;14.55;;;18.80;99.90;;;;;;5071179;28;20036;-80
2021/06/03 06:22:54;;;;;;;17.90;14.45;;;18.80;99.90;;;;;;5064725;28;20044;-80
2021/06/03 06:25:20;;;;;;;16.77;14.73;;;18.80;99.90;;;;;;5087216;28;20229;-81
2021/06/03 06:27:47;;;;;;;16.98;13.75;;;18.80;99.90;;;;;;5061080;28;20388;-81
2021/06/03 06:30:14;;;;;;;16.17;14.25;;;18.80;99.90;;;;;;5073842;28;20043;-80
2021/06/03 06:32:40;;;;;;;21.85;14.77;;;18.80;99.90;;;;;;5065673;28;20032;-80
2021/06/03 06:35:08;;;;;;;16.75;13.75;;;18.80;99.90;;;;;;5066626;28;20058;-80
2021/06/03 06:37:34;;;;;;;18.58;14.43;;;18.80;99.90;;;;;;5081531;28;20028;-80
2021/06/03 06:40:02;;;;;;;20.52;15.43;;;18.90;99.90;;;;;;5077331;28;20089;-81
2021/06/03 06:42:30;;;;;;;17.65;14.60;;;18.90;99.90;;;;;;5081010;28;20048;-81
2021/06/03 06:44:55;;;;;;;17.60;14.77;;;18.90;99.90;;;;;;5055493;28;20036;-81
2021/06/03 06:47:21;;;;;;;20.20;15.70;;;18.90;99.90;;;;;;5078459;28;20046;-81
2021/06/03 06:49:48;;;;;;;18.98;16.73;;;19.00;99.90;;;;;;5065593;28;20036;-81
2021/06/03 06:52:15;;;;;;;23.55;16.25;;;19.00;99.90;;;;;;5086196;28;20085;-80
2021/06/03 06:54:41;;;;;;;18.17;15.50;;;19.00;99.90;;;;;;5107646;27;20050;-80
2021/06/03 06:57:08;;;;;;;20.05;15.95;;;19.00;99.90;;;;;;5076909;28;20028;-81
2021/06/03 06:59:34;;;;;;;22.30;16.58;;;19.10;99.90;;;;;;5086765;28;20024;-81
2021/06/03 07:05:46;;;;;;;20.63;17.30;;;19.20;99.90;;;;;;5086883;28;20058;-80
2021/06/03 07:08:13;;;;;;;21.50;17.35;;;19.20;99.90;;;;;;5086076;28;20074;-80
2021/06/03 07:10:40;;;;;;;20.92;16.08;;;19.30;99.90;;;;;;5085928;28;20054;-81
2021/06/03 07:13:06;;;;;;;25.55;17.00;;;19.40;99.90;;;;;;5087610;28;20035;-81
2021/06/03 07:15:31;;;;;;;22.52;17.25;;;19.40;99.90;;;;;;5088593;28;20040;-81
2021/06/03 07:17:57;;;;;;;21.38;17.52;;;19.40;99.90;;;;;;5088231;28;20075;-80
2021/06/03 07:20:24;;;;;;;22.30;18.20;;;19.50;99.90;;;;;;5071555;28;20100;-80
2021/06/03 07:22:53;;;;;;;20.27;16.90;;;19.50;99.90;;;;;;5071652;28;20036;-81
2021/06/03 07:25:24;;;;;;;23.15;17.60;;;19.50;99.90;;;;;;5089043;28;20568;-81
2021/06/03 07:27:52;;;;;;;19.80;15.95;;;19.50;99.90;;;;;;5088237;28;20050;-81
2021/06/03 07:30:20;;;;;;;17.30;15.48;;;19.60;99.90;;;;;;5054861;28;20429;-81
2021/06/03 07:33:07;;;;;;;19.23;13.98;;;19.60;99.90;;;;;;5073559;28;20147;-80
2021/06/03 07:35:35;;;;;;;17.27;13.70;;;19.70;99.90;;;;;;5070967;28;20786;-81
2021/06/03 07:38:02;;;;;;;17.98;14.02;;;19.70;99.90;;;;;;5086745;28;20132;-81
2021/06/03 07:40:33;;;;;;;24.35;16.13;;;19.70;99.90;;;;;;5070668;28;20128;-81
2021/06/03 07:43:00;;;;;;;18.52;15.07;;;19.70;99.90;;;;;;5087621;28;20039;-81
2021/06/03 07:45:29;;;;;;;18.35;14.40;;;19.70;99.90;;;;;;5089147;28;20508;-81
2021/06/03 07:47:56;;;;;;;17.52;14.15;;;19.70;99.90;;;;;;5087939;28;20044;-81
2021/06/03 07:50:27;;;;;;;17.92;14.20;;;19.70;99.90;;;;;;5086321;28;20040;-81
2021/06/03 07:52:53;;;;;;;15.63;13.85;;;19.70;99.90;;;;;;5088494;28;20123;-80
2021/06/03 07:55:20;;;;;;;15.77;13.13;;;19.70;99.90;;;;;;5033706;28;20139;-81
2021/06/03 07:57:51;;;;;;;20.23;13.57;;;19.70;99.90;;;;;;5067455;28;20468;-80
2021/06/03 08:00:19;;;;;;;22.98;13.40;;;19.70;99.90;;;;;;5071825;28;20123;-81
2021/06/03 08:02:46;;;;;;;15.32;12.35;;;19.80;99.90;;;;;;5086796;28;20109;-80
2021/06/03 08:05:15;;;;;;;14.60;12.05;;;19.80;99.90;;;;;;5087597;28;20043;-81
2021/06/03 08:07:41;;;;;;;21.05;13.02;;;19.80;99.90;;;;;;5087593;28;20495;-81
2021/06/03 08:10:10;;;;;;;21.95;13.93;;;19.90;99.90;;;;;;5087018;28;20133;-81
2021/06/03 08:12:36;;;;;;;15.43;12.75;;;19.90;99.90;;;;;;5086871;28;20403;-80
2021/06/03 08:15:06;;;;;;;20.13;14.10;;;20.00;99.90;;;;;;5053875;28;20441;-81
2021/06/03 08:17:48;;;;;;;15.52;13.23;;;20.10;99.90;;;;;;5086829;28;20031;-81
2021/06/03 08:20:19;;;;;;;17.17;13.85;;;20.20;99.90;;;;;;5087320;28;20067;-80
2021/06/03 08:22:44;;;;;;;17.27;12.57;;;20.30;99.90;;;;;;5087077;28;20135;-81
2021/06/03 08:25:12;;;;;;;16.63;12.98;;;20.30;99.90;;;;;;5066746;28;20150;-81
2021/06/03 08:27:38;;;;;;;18.67;13.25;;;20.40;99.90;;;;;;5067049;28;20040;-81
2021/06/03 08:30:07;;;;;;;19.40;13.90;;;20.50;99.90;;;;;;5051130;28;20396;-81
2021/06/03 08:32:43;;;;;;;18.13;13.60;;;20.40;99.90;;;;;;5066079;28;20506;-81
2021/06/03 08:35:14;;;;;;;15.40;12.52;;;20.50;99.90;;;;;;5087224;28;20048;-81
2021/06/03 08:38:04;;;;;;;15.27;13.07;;;20.50;99.90;;;;;;5073033;28;20054;-80
2021/06/03 08:40:45;;;;;;;15.63;13.95;;;20.60;99.90;;;;;;5086816;28;20036;-80
2021/06/03 08:43:12;;;;;;;19.27;13.98;;;20.70;99.90;;;;;;5087161;28;20579;-81
2021/06/03 08:45:40;;;;;;;18.33;13.40;;;20.70;99.90;;;;;;5070365;28;20063;-81
2021/06/03 08:48:06;;;;;;;16.73;13.52;;;20.70;99.90;;;;;;5088220;28;20035;-81
2021/06/03 08:50:38;;;;;;;19.13;13.13;;;20.70;99.90;;;;;;5087156;28;20044;-81
2021/06/03 08:53:04;;;;;;;15.57;13.57;;;20.80;99.90;;;;;;5087985;28;20123;-81
2021/06/03 08:58:18;;;;;;;17.95;14.38;;;20.80;99.90;;;;;;5087273;28;20411;-81
2021/06/03 09:00:46;;;;;;;17.58;13.68;;;20.90;99.90;;;;;;5070781;28;20040;-81
2021/06/03 09:03:13;;;;;;;18.08;14.20;;;20.90;99.90;;;;;;5069711;28;20043;-81
2021/06/03 09:05:40;;;;;;;16.30;13.88;;;21.00;99.90;;;;;;5088037;28;20032;-81
2021/06/03 09:08:26;;;;;;;21.90;14.95;;;21.00;99.90;;;;;;5086974;28;20036;-81
2021/06/03 09:10:54;;;;;;;18.55;14.48;;;21.00;99.90;;;;;;5087516;28;20135;-81
2021/06/03 09:13:30;;;;;;;16.55;13.85;;;20.90;99.90;;;;;;5070789;28;20043;-81
2021/06/03 09:15:57;;;;;;;20.35;15.80;;;20.90;99.90;;;;;;5090743;28;20035;-81
2021/06/03 09:18:35;;;;;;;19.63;14.20;;;20.90;99.90;;;;;;5090922;28;20040;-81
2021/06/03 09:21:21;;;;;;;18.10;14.98;;;20.80;99.90;;;;;;5090656;28;20040;-80
2021/06/03 09:24:10;;;;;;;15.80;13.90;;;20.80;99.90;;;;;;5091431;28;20082;-80
2021/06/03 09:26:45;;;;;;;18.20;15.52;;;20.80;99.90;;;;;;5090431;28;20139;-81
2021/06/03 09:29:13;;;;;;;20.60;16.25;;;20.90;99.90;;;;;;5090954;28;20484;-81
2021/06/03 09:31:40;;;;;;;18.90;16.05;;;20.90;99.90;;;;;;5073222;28;20767;-81
2021/06/03 09:34:10;;;;;;;19.00;15.43;;;21.00;99.90;;;;;;5072697;28;20063;-82
2021/06/03 09:36:40;;;;;;;23.65;16.55;;;21.10;99.90;;;;;;5090252;28;20032;-80
2021/06/03 09:39:21;;;;;;;21.13;15.77;;;21.10;99.90;;;;;;5089805;28;20032;-81
2021/06/03 09:42:06;;;;;;;19.15;15.25;;;21.20;99.90;;;;;;5090269;28;20509;-81
2021/06/03 09:44:38;;;;;;;19.00;16.85;;;21.30;99.90;;;;;;5091506;28;20043;-81
2021/06/03 09:47:07;;;;;;;22.02;15.63;;;21.30;99.90;;;;;;5091192;28;20375;-81
2021/06/03 09:49:37;;;;;;;17.20;14.68;;;21.40;99.90;;;;;;5091162;28;20152;-81
2021/06/03 09:52:10;;;;;;;23.83;16.70;;;21.40;99.90;;;;;;5089579;28;20040;-81
2021/06/03 09:54:37;;;;;;;18.20;15.25;;;21.50;99.90;;;;;;5089792;28;20047;-81
2021/06/03 09:57:11;;;;;;;16.95;15.32;;;21.50;99.90;;;;;;5091281;28;20035;-81
2021/06/03 09:59:45;;;;;;;21.35;16.27;;;21.60;99.90;;;;;;5091376;28;20051;-81
2021/06/03 10:02:20;;;;;;;21.65;16.13;;;21.70;99.90;;;;;;5090686;28;20036;-81
2021/06/03 10:04:52;;;;;;;19.38;16.52;;;21.70;99.90;;;;;;5090803;28;20089;-81
2021/06/03 10:07:25;;;;;;;21.20;16.83;;;21.80;99.90;;;;;;5091265;28;20119;-81
2021/06/03 10:10:06;;;;;;;16.65;13.98;;;21.90;99.90;;;;;;5072301;28;20044;-81
2021/06/03 10:12:43;;;;;;;17.40;13.80;;;21.90;99.90;;;;;;5089284;28;20930;-81
2021/06/03 10:15:12;;;;;;;18.17;14.80;;;22.00;99.90;;;;;;5090983;28;20046;-80
2021/06/03 10:18:01;;;;;;;20.45;16.08;;;22.00;99.90;;;;;;5088809;28;20498;-81
2021/06/03 10:20:49;;;;;;;19.92;16.00;;;22.00;99.90;;;;;;5090639;28;20520;-81
2021/06/03 10:23:23;;;;;;;18.75;14.82;;;22.00;99.90;;;;;;5088895;28;20047;-81
2021/06/03 10:25:55;;;;;;;18.17;14.50;;;22.10;99.90;;;;;;5089336;28;20036;-81
2021/06/03 10:28:21;;;;;;;20.40;16.85;;;22.10;99.90;;;;;;5123387;27;20541;-81
2021/06/03 10:30:49;;;;;;;18.55;16.65;;;22.20;99.90;;;;;;5089233;28;20038;-81
2021/06/03 10:33:21;;;;;;;20.45;18.20;;;22.20;99.90;;;;;;5090566;28;20044;-82
2021/06/03 10:35:49;;;;;;;;;;;22.30;99.90;;;;;;5089518;28;20032;-80
2021/06/03 10:38:15;;;;;;;19.20;17.10;;;22.30;99.90;;;;;;5090149;28;19920;-81
2021/06/03 10:40:45;;;;;;;23.08;18.60;;;22.40;99.90;;;;;;5072434;28;20127;-81
2021/06/03 10:43:12;;;;;;;23.42;17.92;;;22.40;99.90;;;;;;5089149;28;20076;-81
2021/06/03 10:45:40;;;;;;;22.88;19.48;;;22.40;99.90;;;;;;5051566;28;20032;-81
2021/06/03 10:48:06;;;;;;;21.95;18.60;;;22.50;99.90;;;;;;5068860;28;20060;-81
2021/06/03 10:50:43;;;;;;;22.60;20.17;;;22.60;99.90;;;;;;5068540;28;20039;-81
2021/06/03 10:53:13;;;;;;;22.42;19.00;;;22.60;99.90;;;;;;5102080;28;20043;-81
2021/06/03 10:55:41;;;;;;;21.45;16.90;;;22.70;99.90;;;;;;5069824;28;20586;-81
2021/06/03 10:58:10;;;;;;;22.20;17.13;;;22.70;99.90;;;;;;5052246;28;20078;-82
2021/06/03 11:00:47;;;;;;;22.25;17.08;;;22.70;99.90;;;;;;5068278;28;20029;-81
2021/06/03 11:03:24;;;;;;;20.50;18.20;;;22.70;99.90;;;;;;5053880;28;20044;-81
2021/06/03 11:06:01;;;;;;;19.02;16.23;;;22.80;99.90;;;;;;5088724;28;20453;-81
2021/06/03 11:08:36;;;;;;;20.67;18.42;;;22.90;99.90;;;;;;5089411;28;20032;-81
2021/06/03 11:11:11;;;;;;;24.52;19.40;;;22.90;99.90;;;;;;5088344;28;20048;-81
2021/06/03 11:13:57;;;;;;;20.92;18.73;;;22.90;99.90;;;;;;5088446;28;20395;-82
2021/06/03 11:16:25;;;;;;;25.50;19.58;;;23.00;99.90;;;;;;5069902;28;20136;-81
2021/06/03 11:18:54;;;;;;;22.13;19.75;;;23.00;99.90;;;;;;5069189;28;20043;-81
2021/06/03 11:21:35;;;;;;;21.73;16.70;;;23.00;99.90;;;;;;5067862;28;20033;-82
2021/06/03 11:24:01;;;;;;;21.40;17.95;;;23.10;99.90;;;;;;5068779;28;20044;-81
2021/06/03 11:26:48;;;;;;;21.30;18.20;;;23.20;99.90;;;;;;5067970;28;20036;-81
2021/06/03 11:29:28;;;;;;;18.55;16.63;;;23.20;99.90;;;;;;5068326;28;20054;-81
2021/06/03 11:32:00;;;;;;;23.60;14.80;;;23.30;99.90;;;;;;5067848;28;20140;-81
2021/06/03 11:34:40;;;;;;;25.10;16.85;;;23.30;99.90;;;;;;5073010;28;20402;-82
2021/06/03 11:37:17;;;;;;;22.52;16.27;;;23.30;99.90;;;;;;5072191;28;20043;-81
2021/06/03 11:40:04;;;;;;;17.63;13.88;;;23.40;99.90;;;;;;5089249;28;20653;-81
2021/06/03 11:42:30;;;;;;;21.73;16.25;;;23.50;99.90;;;;;;5089425;28;20051;-81
2021/06/03 11:45:08;;;;;;;19.23;14.70;;;23.50;99.90;;;;;;5087528;28;20036;-81
2021/06/03 11:47:37;;;;;;;19.25;16.15;;;23.50;99.90;;;;;;5087501;28;20501;-81
2021/06/03 11:50:04;;;;;;;20.80;17.00;;;23.60;99.90;;;;;;5088166;28;20054;-81
2021/06/03 11:52:30;;;;;;;21.80;16.02;;;23.60;99.90;;;;;;5087009;28;20044;-82
2021/06/03 11:55:38;;;;;;;19.13;15.13;;;23.60;99.90;;;;;;5070925;28;20507;-82
2021/06/03 11:58:44;;;;;;;21.80;17.20;;;23.70;99.90;;;;;;5089143;28;20498;-82
2021/06/03 12:01:17;;;;;;;21.02;18.38;;;23.70;99.90;;;;;;5087424;28;20051;-81
2021/06/03 12:04:10;;;;;;;19.75;17.65;;;23.70;99.90;;;;;;5087447;28;20115;-81
2021/06/03 12:06:44;;;;;;;20.45;14.75;;;23.80;99.90;;;;;;5087912;28;20138;-81
2021/06/03 12:09:23;;;;;;;21.75;15.18;;;23.90;99.90;;;;;;5087688;28;20089;-85
2021/06/03 12:12:04;;;;;;;18.08;14.75;;;24.00;99.90;;;;;;5087108;28;20114;-82
2021/06/03 12:14:31;;;;;;;16.40;12.60;;;24.10;99.90;;;;;;5084126;28;20051;-81
2021/06/03 12:17:04;;;;;;;18.35;12.10;;;24.10;99.90;;;;;;5088083;28;20032;-83
2021/06/03 12:19:36;;;;;;;16.15;12.70;;;24.00;99.90;;;;;;5069910;28;20112;-81
2021/06/03 12:22:04;;;;;;;17.23;14.98;;;24.00;99.90;;;;;;5087058;28;20529;-83
2021/06/03 12:24:53;;;;;;;18.13;13.30;;;24.10;99.90;;;;;;5084143;28;20102;-83
2021/06/03 12:27:25;;;;;;;23.55;15.10;;;24.10;99.90;;;;;;5087780;28;20036;-83
2021/06/03 12:29:53;;;;;;;17.35;11.65;;;24.20;99.90;;;;;;5120967;27;20103;-83
2021/06/03 12:32:21;;;;;;;16.05;12.15;;;24.20;99.90;;;;;;5068496;28;20052;-82
2021/06/03 12:34:47;;;;;;;17.83;14.52;;;24.20;99.90;;;;;;5086296;28;20051;-83
2021/06/03 12:37:23;;;;;;;17.55;14.13;;;24.30;99.90;;;;;;5067147;28;20064;-83
2021/06/03 12:39:49;;;;;;;22.67;18.52;;;24.40;99.90;;;;;;5086415;28;20483;-84
2021/06/03 12:42:20;;;;;;;21.35;15.57;;;24.50;99.90;;;;;;5086279;28;20024;-84
2021/06/03 12:45:13;;;;;;;20.85;18.63;;;24.60;99.90;;;;;;5087449;28;20036;-83
2021/06/03 12:47:39;;;;;;;23.70;17.75;;;24.60;99.90;;;;;;5111212;27;20124;-84
2021/06/03 12:50:09;;;;;;;23.33;18.58;;;24.70;99.90;;;;;;5091598;28;20036;-84